NCAR-RAP Real-Time Weather Data

Output produced by METARs form (08 May 2021  16:47 UTC)
found at http://weather.rap.ucar.edu/surface/
 
KSTL 081551Z 11013G19KT 10SM BKN065 OVC100 12/02 A3011 RMK AO2 SLP194 T01220022
KSTL 081451Z 12017G21KT 10SM BKN075 OVC100 12/01 A3010 RMK AO2 SLP189 T01220011 51001
KSTL 081351Z 10013KT 10SM BKN070 OVC120 11/02 A3010 RMK AO2 SLP188 T01110017
KSTL 081251Z 10012KT 10SM FEW075 BKN095 OVC120 11/01 A3010 RMK AO2 SLP191 T01060011
KSTL 081151Z 10010KT 10SM BKN080 OVC110 11/02 A3010 RMK AO2 SLP187 T01110017 10150 20111 51014
KSTL 081051Z 09010KT 10SM FEW085 BKN110 OVC250 11/02 A3009 RMK AO2 SLP184 T01110022
KSTL 080951Z 09009KT 10SM BKN110 11/03 A3008 RMK AO2 SLP181 T01110028
KSTL 080851Z 09011G17KT 10SM SCT080 OVC100 12/02 A3006 RMK AO2 SLP173 T01220022 50000
KSTL 080751Z 08010KT 10SM OVC090 13/02 A3007 RMK AO2 SLP177 T01280017
KSTL 080651Z 07007KT 10SM FEW095 BKN120 14/01 A3007 RMK AO2 SLP177 T01390011
KSTL 080551Z 08006KT 10SM BKN100 OVC120 14/02 A3006 RMK AO2 SLP171 T01440017 10211 20144 402390072 51010
KSTL 080451Z 06005KT 10SM SCT100 BKN130 16/01 A3005 RMK AO2 SLP169 T01560006
KSTL 080351Z 03006KT 10SM FEW110 BKN130 17/01 A3004 RMK AO2 SLP166 T01720006
KSTL 080251Z 02006KT 10SM SCT110 BKN140 18/01 A3002 RMK AO2 SLP162 T01830011 53016
KSTL 080151Z 01006KT 10SM FEW080 BKN120 19/03 A2999 RMK AO2 SLP152 T01940028
KSTL 080051Z 29006KT 10SM FEW080 BKN110 BKN140 19/04 A2997 RMK AO2 SLP146 T01940039
KSTL 072351Z 29007KT 10SM SCT080 BKN110 22/04 A2997 RMK AO2 SLP147 T02170044 10239 20211 56014
KSTL 072251Z 28010KT 10SM BKN095 BKN120 22/04 A2998 RMK AO2 SLP152 T02170044
KSTL 072151Z 28017G23KT 10SM BKN100 BKN120 22/04 A3000 RMK AO2 PK WND 29028/2114 SLP156 T02220039
KSTL 072051Z 29012G23KT 10SM BKN100 23/05 A3001 RMK AO2 PK WND 31031/1953 SLP161 T02330050 56016
KSTL 071951Z 29015G29KT 10SM BKN095 BKN250 24/04 A3002 RMK AO2 PK WND 29031/1933 SLP161 T02390044
KSTL 071851Z 28017G28KT 10SM FEW065 BKN095 BKN250 23/04 A3004 RMK AO2 PK WND 29028/1848 SLP168 T02330044
KSTL 071751Z 29015G26KT 10SM FEW065 BKN095 BKN250 23/04 A3006 RMK AO2 PK WND 25027/1719 SLP176 T02280039 10228 20094 58019
KSTL 071651Z 24012G19KT 10SM SCT110 SCT250 21/05 A3009 RMK AO2 PK WND 24028/1629 SLP186 T02110050
KSTL 071551Z 25012G21KT 10SM CLR 20/04 A3011 RMK AO2 SLP192 T02000039
KSTL 071451Z 28011G18KT 10SM CLR 18/05 A3012 RMK AO2 SLP196 T01780050 58002
KSTL 071351Z 26008KT 10SM CLR 14/04 A3013 RMK AO2 SLP201 T01390044
KSTL 071251Z 27007KT 10SM FEW080 12/04 A3013 RMK AO2 SLP202 T01220044
KSTL 071151Z COR 27007KT 10SM FEW080 09/03 A3013 RMK AO2 SLP201 70001 T00940033 10100 20072 53009 $
KSTL 071051Z 28005KT 10SM FEW080 08/03 A3012 RMK AO2 SLP199 T00780028 $
KSTL 070951Z 28005KT 10SM CLR 08/03 A3011 RMK AO2 SLP195 T00830033 $
KSTL 070851Z 28005KT 10SM CLR 08/03 A3010 RMK AO2 SLP192 T00830033 55013 $
KSTL 070751Z 00000KT 10SM FEW090 09/03 A3010 RMK AO2 SLP191 T00890028 $
KSTL 070651Z 26006KT 10SM FEW090 10/03 A3012 RMK AO2 SLP196 T01000028 $
KSTL 070551Z 26006KT 10SM FEW090 10/03 A3014 RMK AO2 SLP204 T01000033 10161 20100 402060100 58008 $
KSTL 070451Z 27003KT 10SM FEW090 11/03 A3015 RMK AO2 SLP208 T01110028 $
KSTL 070351Z 28005KT 10SM CLR 11/03 A3016 RMK AO2 SLP212 T01110028 $
KSTL 070251Z 28004KT 10SM CLR 13/02 A3017 RMK AO2 SLP211 T01280017 51015 $
KSTL 070151Z 31004KT 10SM CLR 13/02 A3015 RMK AO2 SLP207 T01330017 $
KSTL 070051Z 32008KT 10SM FEW075 15/01 A3014 RMK AO2 SLP204 T01500011 $
KSTL 062351Z 35012G21KT 10SM SCT050 16/02 A3012 RMK AO2 SLP197 T01610022 10206 20156 $
KSTL 062251Z 31017G30KT 10SM SCT048 17/03 A3012 RMK AO2 PK WND 32030/2243 SLP195 T01670028
KSTL 062151Z 33020G28KT 10SM SCT046 17/04 A3011 RMK AO2 PK WND 33034/2108 SLP192 T01670039
KSTL 062051Z 33017G31KT 10SM SCT043 18/07 A3008 RMK AO2 PK WND 32033/2003 SLP184 T01830072 53003
KSTL 061951Z 31021G31KT 10SM FEW047 SCT075 BKN250 19/07 A3007 RMK AO2 PK WND 31033/1941 LTG DSNT E SLP177 CB DSNT SE MOV SE T01940072
KSTL 061851Z 32016G23KT 10SM FEW040 BKN049 BKN065 19/08 A3006 RMK AO2 PK WND 29027/1830 SLP174 T01940078
KSTL 061751Z 29012G20KT 10SM FEW041 SCT075 BKN200 18/09 A3007 RMK AO2 SLP181 60001 T01830094 10200 20133 58001
KSTL 061651Z 28007KT 10SM FEW070 BKN095 OVC110 16/09 A3008 RMK AO2 LTG DSNT E RAE43 TSE38 SLP184 OCNL LTGIC DSNT SE CB DSNT SE MOV SE P0001 T01610094